Home   Weather   Italy   Milan   Past weeks
Flag for Italy

Past Weather in Milan, Italy — April 2021

Currently: 70 °F. Passing clouds. (Weather station: Milan / Linate, Italy). See more current weather

April 2021 Weather in Milan — Graph

°F

High & Low Weather Summary for April 2021

 TemperatureHumidityPressure
High81 °F (Apr 2, 4:20 pm)100% (Apr 11, 10:20 am)30.33 "Hg (Apr 11, 10:20 am)
Low30 °F (Apr 8, 6:50 am)11% (Apr 6, 12:20 pm)29.53 "Hg (Apr 6, 4:20 am)
Average54 °F64%30.01 "Hg
* Reported Apr 1 12:20 am — Apr 30 11:50 pm, Milan. Weather by CustomWeather, © 2022

Note: Actual official high and low records may vary slightly from our data, if they occured in-between our weather recording intervals... More about our weather records

Milan Weather History for April 1, 2021

Scroll right to see more
 ConditionsComfort  
Time TempWeatherWind HumidityBarometerVisibility
12:20 am
Thu, Apr 1
57 °FClear.2 mph67%30.15 "Hg10 mi
12:50 am55 °FClear.2 mph72%30.15 "Hg10 mi
1:20 am54 °FClear.3 mph77%30.15 "Hg10 mi
1:50 am55 °FClear.2 mph72%30.15 "Hg10 mi
2:50 am54 °FClear.No wind77%30.15 "Hg10 mi
3:20 am50 °FClear.1 mph88%30.12 "Hg10 mi
3:50 am54 °FClear.1 mph77%30.12 "Hg10 mi
4:20 am54 °FClear.2 mph77%30.12 "Hg10 mi
4:50 am52 °FClear.2 mph77%30.12 "Hg10 mi
5:20 am50 °FClear.1 mph88%30.12 "Hg10 mi
5:50 am50 °FClear.1 mph82%30.12 "Hg10 mi
6:20 am48 °FClear.1 mph87%30.12 "Hg10 mi
7:50 am50 °FClear.2 mph88%30.12 "Hg4 mi
9:50 am64 °FClear.2 mph56%30.09 "Hg5 mi
10:20 am66 °FPassing clouds.3 mph49%30.09 "HgN/A
11:20 am68 °FSunny.2 mph49%30.09 "Hg10 mi
11:50 am70 °FPassing clouds.3 mph43%30.09 "HgN/A
12:20 pm72 °FPassing clouds.5 mph44%30.07 "HgN/A
12:50 pm73 °FSunny.3 mph41%30.07 "Hg10 mi
1:20 pm73 °FPassing clouds.6 mph38%30.07 "HgN/A
1:50 pm73 °FPassing clouds.6 mph36%30.04 "HgN/A
2:20 pm77 °FPassing clouds.6 mph36%30.04 "HgN/A
2:50 pm77 °FPassing clouds.6 mph34%30.01 "HgN/A
3:20 pm77 °FPassing clouds.6 mph34%30.01 "HgN/A
3:50 pm79 °FPassing clouds.7 mph30%30.01 "HgN/A
4:20 pm79 °FPassing clouds.7 mph26%29.98 "HgN/A
4:50 pm79 °FPassing clouds.6 mph28%29.98 "HgN/A
5:20 pm79 °FPassing clouds.5 mph30%29.95 "HgN/A
5:50 pm79 °FPassing clouds.6 mph28%29.95 "HgN/A
6:20 pm79 °FPassing clouds.6 mph26%29.95 "HgN/A
6:50 pm79 °FPassing clouds.5 mph26%29.95 "HgN/A
7:20 pm77 °FPassing clouds.3 mph28%29.95 "HgN/A
7:50 pm73 °FPassing clouds.7 mph31%29.95 "HgN/A
8:20 pm72 °FPassing clouds.6 mph31%29.95 "HgN/A
8:50 pm70 °FPassing clouds.5 mph33%29.95 "HgN/A
9:20 pm68 °FPassing clouds.6 mph35%29.98 "HgN/A
9:50 pm66 °FPassing clouds.5 mph37%29.98 "HgN/A
10:20 pm66 °FPassing clouds.6 mph37%29.98 "HgN/A
10:50 pm66 °FClear.6 mph37%29.98 "Hg10 mi
11:20 pm64 °FClear.6 mph40%29.98 "Hg10 mi
11:50 pm64 °FClear.5 mph37%29.98 "Hg10 mi
Weather by CustomWeather, © 2022

See weather overview